sensor_id;sensor_type;location;lat;lon;timestamp;pressure;altitude;pressure_sealevel;temperature;humidity
45327;BME280;31062;49.678;24.560;2023-08-24T00:00:31;98415.81;;;19.97;73.72
45327;BME280;31062;49.678;24.560;2023-08-24T00:03:18;98415.47;;;20.05;73.62
45327;BME280;31062;49.678;24.560;2023-08-24T00:06:06;98385.72;;;19.84;73.40
45327;BME280;31062;49.678;24.560;2023-08-24T00:08:51;98425.44;;;20.08;73.58
45327;BME280;31062;49.678;24.560;2023-08-24T00:11:37;98266.97;;;19.05;73.38
45327;BME280;31062;49.678;24.560;2023-08-24T00:14:22;98402.56;;;20.00;73.25
45327;BME280;31062;49.678;24.560;2023-08-24T00:17:08;98281.81;;;19.07;73.38
45327;BME280;31062;49.678;24.560;2023-08-24T00:19:54;98382.66;;;19.62;73.98
45327;BME280;31062;49.678;24.560;2023-08-24T00:22:39;98416.94;;;19.74;74.15
45327;BME280;31062;49.678;24.560;2023-08-24T00:25:25;98293.84;;;18.79;74.24
45327;BME280;31062;49.678;24.560;2023-08-24T00:28:11;98424.56;;;19.56;74.39
45327;BME280;31062;49.678;24.560;2023-08-24T00:30:57;98428.72;;;19.55;75.09
45327;BME280;31062;49.678;24.560;2023-08-24T00:33:44;98265.06;;;18.49;75.14
45327;BME280;31062;49.678;24.560;2023-08-24T00:36:30;98254.25;;;18.43;75.26
45327;BME280;31062;49.678;24.560;2023-08-24T00:39:15;98247.13;;;18.40;75.28
45327;BME280;31062;49.678;24.560;2023-08-24T00:42:01;98400.03;;;19.43;75.63
45327;BME280;31062;49.678;24.560;2023-08-24T00:44:50;98377.09;;;19.33;75.99
45327;BME280;31062;49.678;24.560;2023-08-24T00:47:46;98248.75;;;18.45;75.82
45327;BME280;31062;49.678;24.560;2023-08-24T00:50:34;98436.00;;;19.60;75.54
45327;BME280;31062;49.678;24.560;2023-08-24T00:53:21;98429.47;;;19.71;75.22
45327;BME280;31062;49.678;24.560;2023-08-24T00:56:09;98422.19;;;19.82;74.80
45327;BME280;31062;49.678;24.560;2023-08-24T00:58:56;98260.41;;;18.69;74.31
45327;BME280;31062;49.678;24.560;2023-08-24T01:01:41;98389.09;;;19.49;74.42
45327;BME280;31062;49.678;24.560;2023-08-24T01:04:30;98383.00;;;19.39;74.49
45327;BME280;31062;49.678;24.560;2023-08-24T01:07:16;98403.88;;;19.49;74.61
45327;BME280;31062;49.678;24.560;2023-08-24T01:10:03;98282.88;;;18.69;74.76
45327;BME280;31062;49.678;24.560;2023-08-24T01:13:10;98404.78;;;19.70;74.76
45327;BME280;31062;49.678;24.560;2023-08-24T01:16:02;98408.59;;;19.76;74.67
45327;BME280;31062;49.678;24.560;2023-08-24T01:18:49;98249.00;;;18.65;74.16
45327;BME280;31062;49.678;24.560;2023-08-24T01:21:35;98373.41;;;19.60;74.23
45327;BME280;31062;49.678;24.560;2023-08-24T01:24:38;98406.94;;;19.87;74.14
45327;BME280;31062;49.678;24.560;2023-08-24T01:27:26;98268.78;;;18.98;73.71
45327;BME280;31062;49.678;24.560;2023-08-24T01:30:15;98233.59;;;18.66;73.24
45327;BME280;31062;49.678;24.560;2023-08-24T01:33:04;98253.53;;;18.72;73.57
45327;BME280;31062;49.678;24.560;2023-08-24T01:35:57;98371.66;;;19.37;73.66
45327;BME280;31062;49.678;24.560;2023-08-24T01:38:55;98256.25;;;18.70;73.46
45327;BME280;31062;49.678;24.560;2023-08-24T01:41:46;98355.59;;;19.08;73.66
45327;BME280;31062;49.678;24.560;2023-08-24T01:44:37;98307.91;;;18.94;73.68
45327;BME280;31062;49.678;24.560;2023-08-24T01:47:25;98370.50;;;19.42;73.59
45327;BME280;31062;49.678;24.560;2023-08-24T01:50:13;98249.78;;;18.52;73.53
45327;BME280;31062;49.678;24.560;2023-08-24T01:52:59;98248.22;;;18.49;73.65
45327;BME280;31062;49.678;24.560;2023-08-24T01:55:45;98364.00;;;19.08;73.92
45327;BME280;31062;49.678;24.560;2023-08-24T01:58:31;98271.25;;;18.61;74.50
45327;BME280;31062;49.678;24.560;2023-08-24T02:01:16;98251.56;;;18.45;73.93
45327;BME280;31062;49.678;24.560;2023-08-24T02:04:02;98395.13;;;19.43;74.47
45327;BME280;31062;49.678;24.560;2023-08-24T02:06:48;98233.16;;;18.42;74.33
45327;BME280;31062;49.678;24.560;2023-08-24T02:09:33;98403.06;;;19.47;74.18
45327;BME280;31062;49.678;24.560;2023-08-24T02:12:19;98294.19;;;18.71;74.19
45327;BME280;31062;49.678;24.560;2023-08-24T02:15:04;98256.56;;;18.47;74.21
45327;BME280;31062;49.678;24.560;2023-08-24T02:17:50;98385.00;;;19.36;74.36
45327;BME280;31062;49.678;24.560;2023-08-24T02:20:37;98344.91;;;19.04;74.13
45327;BME280;31062;49.678;24.560;2023-08-24T02:23:22;98343.44;;;19.03;73.48
45327;BME280;31062;49.678;24.560;2023-08-24T02:26:08;98250.28;;;18.48;73.29
45327;BME280;31062;49.678;24.560;2023-08-24T02:28:53;98399.47;;;19.31;73.63
45327;BME280;31062;49.678;24.560;2023-08-24T02:31:38;98402.91;;;19.13;74.15
45327;BME280;31062;49.678;24.560;2023-08-24T02:34:24;98391.09;;;19.01;74.39
45327;BME280;31062;49.678;24.560;2023-08-24T02:37:09;98385.31;;;18.97;74.55
45327;BME280;31062;49.678;24.560;2023-08-24T02:39:55;98264.13;;;18.28;74.76
45327;BME280;31062;49.678;24.560;2023-08-24T02:42:41;98380.16;;;19.07;74.97
45327;BME280;31062;49.678;24.560;2023-08-24T02:45:27;98245.06;;;18.11;74.55
45327;BME280;31062;49.678;24.560;2023-08-24T02:48:12;98393.28;;;19.18;74.82
45327;BME280;31062;49.678;24.560;2023-08-24T02:50:59;98334.16;;;18.85;74.04
45327;BME280;31062;49.678;24.560;2023-08-24T02:53:49;98385.25;;;19.27;74.17
45327;BME280;31062;49.678;24.560;2023-08-24T02:56:35;98386.53;;;19.24;74.47
45327;BME280;31062;49.678;24.560;2023-08-24T02:59:20;98270.31;;;18.41;74.07
45327;BME280;31062;49.678;24.560;2023-08-24T03:02:06;98237.78;;;18.06;74.30
45327;BME280;31062;49.678;24.560;2023-08-24T03:04:51;98273.66;;;18.23;74.71
45327;BME280;31062;49.678;24.560;2023-08-24T03:07:37;98404.53;;;19.03;74.89
45327;BME280;31062;49.678;24.560;2023-08-24T03:10:22;98328.44;;;18.54;75.25
45327;BME280;31062;49.678;24.560;2023-08-24T03:13:08;98315.72;;;18.37;75.50
45327;BME280;31062;49.678;24.560;2023-08-24T03:15:54;98240.84;;;17.83;75.56
45327;BME280;31062;49.678;24.560;2023-08-24T03:18:42;98410.09;;;18.87;76.02
45327;BME280;31062;49.678;24.560;2023-08-24T03:21:27;98353.72;;;18.54;75.98
45327;BME280;31062;49.678;24.560;2023-08-24T03:24:13;98368.19;;;18.62;76.26
45327;BME280;31062;49.678;24.560;2023-08-24T03:26:58;98313.88;;;18.28;76.85
45327;BME280;31062;49.678;24.560;2023-08-24T03:29:43;98264.72;;;17.98;75.86
45327;BME280;31062;49.678;24.560;2023-08-24T03:32:29;98274.16;;;18.04;76.61
45327;BME280;31062;49.678;24.560;2023-08-24T03:35:14;98400.50;;;18.92;76.70
45327;BME280;31062;49.678;24.560;2023-08-24T03:38:01;98398.00;;;18.98;76.45
45327;BME280;31062;49.678;24.560;2023-08-24T03:40:46;98406.13;;;18.92;76.54
45327;BME280;31062;49.678;24.560;2023-08-24T03:43:33;98395.97;;;18.85;76.80
45327;BME280;31062;49.678;24.560;2023-08-24T03:46:18;98352.44;;;18.27;77.10
45327;BME280;31062;49.678;24.560;2023-08-24T03:49:06;98379.41;;;18.62;77.48
45327;BME280;31062;49.678;24.560;2023-08-24T03:51:52;98281.75;;;17.88;77.88
45327;BME280;31062;49.678;24.560;2023-08-24T03:54:37;98408.38;;;18.80;78.17
45327;BME280;31062;49.678;24.560;2023-08-24T03:57:23;98258.84;;;17.78;77.78
45327;BME280;31062;49.678;24.560;2023-08-24T04:00:09;98371.34;;;18.41;77.72
45327;BME280;31062;49.678;24.560;2023-08-24T04:02:59;98407.16;;;18.69;77.89
45327;BME280;31062;49.678;24.560;2023-08-24T04:05:45;98272.13;;;17.64;78.67
45327;BME280;31062;49.678;24.560;2023-08-24T04:08:31;98265.91;;;17.51;78.71
45327;BME280;31062;49.678;24.560;2023-08-24T04:11:16;98390.38;;;18.28;79.35
45327;BME280;31062;49.678;24.560;2023-08-24T04:14:04;98447.63;;;18.51;79.06
45327;BME280;31062;49.678;24.560;2023-08-24T04:16:49;98329.66;;;17.92;79.28
45327;BME280;31062;49.678;24.560;2023-08-24T04:19:38;98258.97;;;17.39;79.35
45327;BME280;31062;49.678;24.560;2023-08-24T04:22:23;98337.41;;;17.93;79.67
45327;BME280;31062;49.678;24.560;2023-08-24T04:25:09;98418.09;;;18.50;80.35
45327;BME280;31062;49.678;24.560;2023-08-24T04:27:55;98337.22;;;18.03;79.76
45327;BME280;31062;49.678;24.560;2023-08-24T04:30:51;98414.22;;;18.70;79.56
45327;BME280;31062;49.678;24.560;2023-08-24T04:33:37;98381.91;;;18.56;79.74
45327;BME280;31062;49.678;24.560;2023-08-24T04:36:25;98368.47;;;18.54;79.19
45327;BME280;31062;49.678;24.560;2023-08-24T04:39:11;98255.22;;;17.75;79.38
45327;BME280;31062;49.678;24.560;2023-08-24T04:41:56;98438.63;;;18.82;79.81
45327;BME280;31062;49.678;24.560;2023-08-24T04:44:41;98424.22;;;18.89;79.82
45327;BME280;31062;49.678;24.560;2023-08-24T04:47:27;98418.63;;;18.89;79.85
45327;BME280;31062;49.678;24.560;2023-08-24T04:50:13;98425.34;;;18.98;79.83
45327;BME280;31062;49.678;24.560;2023-08-24T04:53:00;98426.28;;;19.02;79.97
45327;BME280;31062;49.678;24.560;2023-08-24T04:55:47;98400.34;;;18.88;79.68
45327;BME280;31062;49.678;24.560;2023-08-24T04:58:33;98298.25;;;18.09;79.40
45327;BME280;31062;49.678;24.560;2023-08-24T05:01:19;98288.81;;;18.03;79.61
45327;BME280;31062;49.678;24.560;2023-08-24T05:04:05;98418.72;;;18.91;79.74
45327;BME280;31062;49.678;24.560;2023-08-24T05:06:50;98365.25;;;18.60;80.03
45327;BME280;31062;49.678;24.560;2023-08-24T05:09:36;98340.53;;;18.43;80.26
45327;BME280;31062;49.678;24.560;2023-08-24T05:12:21;98425.38;;;19.13;80.52
45327;BME280;31062;49.678;24.560;2023-08-24T05:15:07;98301.22;;;18.27;80.69
45327;BME280;31062;49.678;24.560;2023-08-24T05:17:53;98324.84;;;18.51;80.78
45327;BME280;31062;49.678;24.560;2023-08-24T05:20:41;98418.88;;;19.25;80.95
45327;BME280;31062;49.678;24.560;2023-08-24T05:23:27;98413.47;;;19.29;81.19
45327;BME280;31062;49.678;24.560;2023-08-24T05:26:12;98426.19;;;19.45;80.40
45327;BME280;31062;49.678;24.560;2023-08-24T05:28:57;98287.94;;;18.57;80.31
45327;BME280;31062;49.678;24.560;2023-08-24T05:31:43;98385.81;;;19.39;79.73
45327;BME280;31062;49.678;24.560;2023-08-24T05:34:29;98432.34;;;19.73;79.48
45327;BME280;31062;49.678;24.560;2023-08-24T05:37:16;98258.78;;;18.64;79.16
45327;BME280;31062;49.678;24.560;2023-08-24T05:40:02;98423.19;;;19.88;79.31
45327;BME280;31062;49.678;24.560;2023-08-24T05:42:50;98297.13;;;19.04;79.07
45327;BME280;31062;49.678;24.560;2023-08-24T05:45:36;98425.34;;;20.06;78.79
45327;BME280;31062;49.678;24.560;2023-08-24T05:48:21;98436.88;;;20.12;79.18
45327;BME280;31062;49.678;24.560;2023-08-24T05:51:07;98271.28;;;19.08;79.54
45327;BME280;31062;49.678;24.560;2023-08-24T05:53:54;98279.81;;;19.10;79.41
45327;BME280;31062;49.678;24.560;2023-08-24T05:56:47;98438.91;;;20.27;78.72
45327;BME280;31062;49.678;24.560;2023-08-24T05:59:34;98431.56;;;20.35;79.24
45327;BME280;31062;49.678;24.560;2023-08-24T06:02:20;98394.94;;;20.02;78.78
45327;BME280;31062;49.678;24.560;2023-08-24T06:05:07;98352.88;;;19.88;78.50
45327;BME280;31062;49.678;24.560;2023-08-24T06:07:54;98419.69;;;20.37;79.00
45327;BME280;31062;49.678;24.560;2023-08-24T06:10:41;98311.34;;;19.71;78.51
45327;BME280;31062;49.678;24.560;2023-08-24T06:13:27;98445.47;;;20.65;78.70
45327;BME280;31062;49.678;24.560;2023-08-24T06:16:12;98387.94;;;20.19;78.51
45327;BME280;31062;49.678;24.560;2023-08-24T06:18:58;98328.03;;;19.83;78.07
45327;BME280;31062;49.678;24.560;2023-08-24T06:21:44;98310.94;;;19.79;77.98
45327;BME280;31062;49.678;24.560;2023-08-24T06:24:29;98280.06;;;19.63;78.69
45327;BME280;31062;49.678;24.560;2023-08-24T06:27:15;98374.34;;;20.31;78.04
45327;BME280;31062;49.678;24.560;2023-08-24T06:30:01;98469.22;;;20.77;77.84
45327;BME280;31062;49.678;24.560;2023-08-24T06:32:46;98452.19;;;20.73;78.34
45327;BME280;31062;49.678;24.560;2023-08-24T06:35:33;98305.00;;;19.71;78.79
45327;BME280;31062;49.678;24.560;2023-08-24T06:38:20;98469.47;;;20.66;79.09
45327;BME280;31062;49.678;24.560;2023-08-24T06:41:07;98463.44;;;20.73;79.06
45327;BME280;31062;49.678;24.560;2023-08-24T06:43:57;98309.97;;;19.72;79.17
45327;BME280;31062;49.678;24.560;2023-08-24T06:46:45;98446.97;;;20.50;78.86
45327;BME280;31062;49.678;24.560;2023-08-24T06:49:34;98435.47;;;20.62;78.85
45327;BME280;31062;49.678;24.560;2023-08-24T06:52:21;98461.75;;;20.84;78.89
45327;BME280;31062;49.678;24.560;2023-08-24T06:55:08;98458.47;;;20.90;78.40
45327;BME280;31062;49.678;24.560;2023-08-24T06:57:55;98440.97;;;20.75;78.38
45327;BME280;31062;49.678;24.560;2023-08-24T07:00:41;98419.63;;;20.70;78.13
45327;BME280;31062;49.678;24.560;2023-08-24T07:03:26;98426.81;;;20.73;77.95
45327;BME280;31062;49.678;24.560;2023-08-24T07:06:12;98408.94;;;20.67;77.57
45327;BME280;31062;49.678;24.560;2023-08-24T07:08:59;98448.06;;;20.94;77.26
45327;BME280;31062;49.678;24.560;2023-08-24T07:11:44;98452.75;;;21.05;77.20
45327;BME280;31062;49.678;24.560;2023-08-24T07:14:31;98471.91;;;21.09;77.47
45327;BME280;31062;49.678;24.560;2023-08-24T07:17:17;98463.63;;;21.13;77.49
45327;BME280;31062;49.678;24.560;2023-08-24T07:20:04;98321.91;;;20.22;76.99
45327;BME280;31062;49.678;24.560;2023-08-24T07:22:59;98341.25;;;20.47;77.18
45327;BME280;31062;49.678;24.560;2023-08-24T07:25:45;98460.44;;;21.58;78.61
45327;BME280;31062;49.678;24.560;2023-08-24T07:28:31;98455.97;;;21.71;78.06
45327;BME280;31062;49.678;24.560;2023-08-24T07:31:16;98416.19;;;21.63;74.93
45327;BME280;31062;49.678;24.560;2023-08-24T07:34:03;98368.13;;;21.41;73.75
45327;BME280;31062;49.678;24.560;2023-08-24T07:36:49;98466.53;;;22.27;73.94
45327;BME280;31062;49.678;24.560;2023-08-24T07:39:35;98329.06;;;21.33;73.34
45327;BME280;31062;49.678;24.560;2023-08-24T07:42:21;98354.28;;;21.67;73.76
45327;BME280;31062;49.678;24.560;2023-08-24T07:45:07;98458.59;;;22.44;73.89
45327;BME280;31062;49.678;24.560;2023-08-24T07:47:53;98478.59;;;22.50;73.83
45327;BME280;31062;49.678;24.560;2023-08-24T07:50:39;98350.78;;;21.88;73.60
45327;BME280;31062;49.678;24.560;2023-08-24T07:53:26;98443.13;;;22.66;73.50
45327;BME280;31062;49.678;24.560;2023-08-24T07:56:11;98474.44;;;22.94;72.58
45327;BME280;31062;49.678;24.560;2023-08-24T07:58:57;98324.44;;;22.01;72.87
45327;BME280;31062;49.678;24.560;2023-08-24T08:01:42;98466.44;;;23.08;72.40
45327;BME280;31062;49.678;24.560;2023-08-24T08:04:28;98472.47;;;23.20;70.51
45327;BME280;31062;49.678;24.560;2023-08-24T08:07:13;98481.16;;;23.27;68.80
45327;BME280;31062;49.678;24.560;2023-08-24T08:09:59;98337.03;;;22.39;67.78
45327;BME280;31062;49.678;24.560;2023-08-24T08:12:45;98470.22;;;23.39;66.63
45327;BME280;31062;49.678;24.560;2023-08-24T08:15:30;98467.72;;;23.49;66.61
45327;BME280;31062;49.678;24.560;2023-08-24T08:18:15;98469.63;;;23.66;64.48
45327;BME280;31062;49.678;24.560;2023-08-24T08:21:01;98469.94;;;23.76;63.81
45327;BME280;31062;49.678;24.560;2023-08-24T08:23:47;98452.53;;;23.62;63.57
45327;BME280;31062;49.678;24.560;2023-08-24T08:26:32;98447.50;;;23.84;62.17
45327;BME280;31062;49.678;24.560;2023-08-24T08:29:18;98431.97;;;23.85;63.35
45327;BME280;31062;49.678;24.560;2023-08-24T08:32:03;98467.06;;;24.24;61.75
45327;BME280;31062;49.678;24.560;2023-08-24T08:34:51;98473.00;;;24.34;61.34
45327;BME280;31062;49.678;24.560;2023-08-24T08:37:36;98461.94;;;24.44;60.44
45327;BME280;31062;49.678;24.560;2023-08-24T08:40:24;98470.59;;;24.50;59.35
45327;BME280;31062;49.678;24.560;2023-08-24T08:43:14;98461.44;;;24.52;58.55
45327;BME280;31062;49.678;24.560;2023-08-24T08:45:59;98450.91;;;24.56;58.26
45327;BME280;31062;49.678;24.560;2023-08-24T08:48:46;98438.13;;;24.55;58.71
45327;BME280;31062;49.678;24.560;2023-08-24T08:51:38;98498.31;;;24.81;56.64
45327;BME280;31062;49.678;24.560;2023-08-24T08:54:23;98314.06;;;23.96;55.73
45327;BME280;31062;49.678;24.560;2023-08-24T08:57:09;98463.56;;;25.09;56.85
45327;BME280;31062;49.678;24.560;2023-08-24T08:59:56;98342.16;;;24.42;55.55
45327;BME280;31062;49.678;24.560;2023-08-24T09:02:43;98447.03;;;25.29;56.34
45327;BME280;31062;49.678;24.560;2023-08-24T09:05:31;98340.66;;;24.68;55.90
45327;BME280;31062;49.678;24.560;2023-08-24T09:08:17;98310.84;;;24.65;53.07
45327;BME280;31062;49.678;24.560;2023-08-24T09:11:03;98358.50;;;25.03;54.16
45327;BME280;31062;49.678;24.560;2023-08-24T09:13:48;98456.44;;;25.68;52.65
45327;BME280;31062;49.678;24.560;2023-08-24T09:16:34;98368.81;;;25.20;53.05
45327;BME280;31062;49.678;24.560;2023-08-24T09:19:27;98340.06;;;25.02;52.43
45327;BME280;31062;49.678;24.560;2023-08-24T09:22:14;98397.03;;;25.46;53.69
45327;BME280;31062;49.678;24.560;2023-08-24T09:25:00;98278.56;;;24.78;53.35
45327;BME280;31062;49.678;24.560;2023-08-24T09:28:00;98296.75;;;24.99;53.86
45327;BME280;31062;49.678;24.560;2023-08-24T09:30:46;98291.84;;;25.02;52.70
45327;BME280;31062;49.678;24.560;2023-08-24T09:33:35;98401.97;;;25.77;52.33
45327;BME280;31062;49.678;24.560;2023-08-24T09:36:21;98303.28;;;25.06;51.78
45327;BME280;31062;49.678;24.560;2023-08-24T09:39:07;98427.94;;;25.99;53.21
45327;BME280;31062;49.678;24.560;2023-08-24T09:41:53;98304.84;;;25.13;51.38
45327;BME280;31062;49.678;24.560;2023-08-24T09:44:46;98390.44;;;25.69;51.50
45327;BME280;31062;49.678;24.560;2023-08-24T09:47:36;98324.19;;;25.23;50.52
45327;BME280;31062;49.678;24.560;2023-08-24T09:50:23;98440.63;;;25.94;51.75
45327;BME280;31062;49.678;24.560;2023-08-24T09:56:04;98427.09;;;25.91;52.09
45327;BME280;31062;49.678;24.560;2023-08-24T09:58:53;98395.50;;;25.73;52.83
45327;BME280;31062;49.678;24.560;2023-08-24T10:01:44;98376.56;;;25.51;53.56
45327;BME280;31062;49.678;24.560;2023-08-24T10:04:33;98412.66;;;25.79;52.40
45327;BME280;31062;49.678;24.560;2023-08-24T10:07:24;98432.66;;;25.87;52.39
45327;BME280;31062;49.678;24.560;2023-08-24T10:10:11;98297.28;;;24.92;53.25
45327;BME280;31062;49.678;24.560;2023-08-24T10:13:08;98438.44;;;25.91;53.03
45327;BME280;31062;49.678;24.560;2023-08-24T10:15:56;98394.13;;;25.76;53.98
45327;BME280;31062;49.678;24.560;2023-08-24T10:18:43;98423.00;;;26.00;52.31
45327;BME280;31062;49.678;24.560;2023-08-24T10:21:29;98324.91;;;25.23;52.11
45327;BME280;31062;49.678;24.560;2023-08-24T10:24:15;98397.56;;;25.70;52.37
45327;BME280;31062;49.678;24.560;2023-08-24T10:27:02;98389.63;;;25.65;53.13
45327;BME280;31062;49.678;24.560;2023-08-24T10:29:48;98332.06;;;25.26;53.17
45327;BME280;31062;49.678;24.560;2023-08-24T10:32:35;98419.97;;;25.90;52.63
45327;BME280;31062;49.678;24.560;2023-08-24T10:35:23;98366.56;;;25.48;52.13
45327;BME280;31062;49.678;24.560;2023-08-24T10:38:22;98366.84;;;25.60;54.02
45327;BME280;31062;49.678;24.560;2023-08-24T10:41:08;98210.25;;;24.66;51.74
45327;BME280;31062;49.678;24.560;2023-08-24T10:44:06;98277.91;;;25.14;51.14
45327;BME280;31062;49.678;24.560;2023-08-24T10:52:45;98334.31;;;25.66;51.72
45327;BME280;31062;49.678;24.560;2023-08-24T10:55:30;98409.06;;;26.14;52.00
45327;BME280;31062;49.678;24.560;2023-08-24T10:58:16;98424.75;;;26.17;51.05
45327;BME280;31062;49.678;24.560;2023-08-24T11:01:02;98368.97;;;25.98;50.42
45327;BME280;31062;49.678;24.560;2023-08-24T11:03:55;98422.13;;;26.27;49.95
45327;BME280;31062;49.678;24.560;2023-08-24T11:06:52;98405.22;;;26.35;50.00
45327;BME280;31062;49.678;24.560;2023-08-24T11:09:45;98275.09;;;25.52;49.86
45327;BME280;31062;49.678;24.560;2023-08-24T11:13:06;98398.50;;;26.57;48.52
45327;BME280;31062;49.678;24.560;2023-08-24T11:15:52;98259.13;;;25.69;47.70
45327;BME280;31062;49.678;24.560;2023-08-24T11:18:43;98268.34;;;25.67;47.39
45327;BME280;31062;49.678;24.560;2023-08-24T11:21:29;98376.41;;;26.55;48.67
45327;BME280;31062;49.678;24.560;2023-08-24T11:24:16;98387.19;;;26.61;47.70
45327;BME280;31062;49.678;24.560;2023-08-24T11:27:05;98368.50;;;26.50;47.01
45327;BME280;31062;49.678;24.560;2023-08-24T11:30:01;98319.75;;;26.23;47.73
45327;BME280;31062;49.678;24.560;2023-08-24T11:32:54;98328.47;;;26.33;46.01
45327;BME280;31062;49.678;24.560;2023-08-24T11:35:44;98322.53;;;26.21;46.20
45327;BME280;31062;49.678;24.560;2023-08-24T11:38:39;98321.41;;;26.36;46.33
45327;BME280;31062;49.678;24.560;2023-08-24T11:41:25;98335.75;;;26.47;45.52
45327;BME280;31062;49.678;24.560;2023-08-24T11:44:11;98368.81;;;26.70;46.84
45327;BME280;31062;49.678;24.560;2023-08-24T11:47:12;98365.97;;;26.70;46.31
45327;BME280;31062;49.678;24.560;2023-08-24T11:49:58;98313.03;;;26.47;45.39
45327;BME280;31062;49.678;24.560;2023-08-24T11:52:46;98254.03;;;26.01;43.98
45327;BME280;31062;49.678;24.560;2023-08-24T11:55:31;98351.84;;;26.76;43.59
45327;BME280;31062;49.678;24.560;2023-08-24T11:58:17;98342.50;;;26.67;44.42
45327;BME280;31062;49.678;24.560;2023-08-24T12:01:02;98349.00;;;26.74;44.92
45327;BME280;31062;49.678;24.560;2023-08-24T12:03:48;98350.47;;;26.77;46.89
45327;BME280;31062;49.678;24.560;2023-08-24T12:06:35;98212.44;;;25.78;46.68
45327;BME280;31062;49.678;24.560;2023-08-24T12:09:20;98210.97;;;25.75;47.74
45327;BME280;31062;49.678;24.560;2023-08-24T12:12:12;98351.84;;;26.76;48.09
45327;BME280;31062;49.678;24.560;2023-08-24T12:14:58;98360.34;;;26.72;46.54
45327;BME280;31062;49.678;24.560;2023-08-24T12:17:44;98331.78;;;26.64;47.60
45327;BME280;31062;49.678;24.560;2023-08-24T12:20:37;98190.25;;;25.68;46.87
45327;BME280;31062;49.678;24.560;2023-08-24T12:23:26;98271.53;;;26.29;46.57
45327;BME280;31062;49.678;24.560;2023-08-24T12:26:18;98332.69;;;26.76;46.90
45327;BME280;31062;49.678;24.560;2023-08-24T12:29:07;98207.56;;;25.82;46.48
45327;BME280;31062;49.678;24.560;2023-08-24T12:31:57;98305.31;;;26.53;45.93
45327;BME280;31062;49.678;24.560;2023-08-24T12:34:43;98329.81;;;26.74;46.81
45327;BME280;31062;49.678;24.560;2023-08-24T12:37:29;98186.97;;;25.82;46.17
45327;BME280;31062;49.678;24.560;2023-08-24T12:40:15;98302.56;;;26.59;45.86
45327;BME280;31062;49.678;24.560;2023-08-24T12:43:01;98208.44;;;25.93;44.57
45327;BME280;31062;49.678;24.560;2023-08-24T12:45:46;98283.00;;;26.35;44.28
45327;BME280;31062;49.678;24.560;2023-08-24T12:48:32;98222.72;;;25.99;44.62
45327;BME280;31062;49.678;24.560;2023-08-24T12:51:18;98344.75;;;26.75;44.75
45327;BME280;31062;49.678;24.560;2023-08-24T12:54:03;98306.28;;;26.70;45.34
45327;BME280;31062;49.678;24.560;2023-08-24T12:56:49;98317.78;;;26.78;46.62
45327;BME280;31062;49.678;24.560;2023-08-24T12:59:34;98314.84;;;26.72;46.46
45327;BME280;31062;49.678;24.560;2023-08-24T13:02:19;98201.41;;;25.96;47.22
45327;BME280;31062;49.678;24.560;2023-08-24T13:05:21;98326.34;;;26.82;46.58
45327;BME280;31062;49.678;24.560;2023-08-24T13:08:07;98198.50;;;25.94;46.29
45327;BME280;31062;49.678;24.560;2023-08-24T13:10:53;98317.72;;;26.76;46.30
45327;BME280;31062;49.678;24.560;2023-08-24T13:13:38;98267.63;;;26.51;47.05
45327;BME280;31062;49.678;24.560;2023-08-24T13:16:24;98306.41;;;26.78;45.64
45327;BME280;31062;49.678;24.560;2023-08-24T13:19:10;98299.28;;;26.77;45.66
45327;BME280;31062;49.678;24.560;2023-08-24T13:21:56;98262.00;;;26.55;45.23
45327;BME280;31062;49.678;24.560;2023-08-24T13:24:42;98300.75;;;26.82;45.24
45327;BME280;31062;49.678;24.560;2023-08-24T13:27:30;98277.16;;;26.69;45.71
45327;BME280;31062;49.678;24.560;2023-08-24T13:30:16;98178.72;;;26.00;45.02
45327;BME280;31062;49.678;24.560;2023-08-24T13:33:01;98284.97;;;26.71;44.42
45327;BME280;31062;49.678;24.560;2023-08-24T13:35:47;98174.34;;;25.93;45.47
45327;BME280;31062;49.678;24.560;2023-08-24T13:38:33;98150.03;;;25.80;45.79
45327;BME280;31062;49.678;24.560;2023-08-24T13:41:18;98290.72;;;26.75;45.42
45327;BME280;31062;49.678;24.560;2023-08-24T13:44:04;98287.91;;;26.77;46.06
45327;BME280;31062;49.678;24.560;2023-08-24T13:46:50;98288.56;;;26.75;45.90
45327;BME280;31062;49.678;24.560;2023-08-24T13:49:36;98283.59;;;26.74;47.20
45327;BME280;31062;49.678;24.560;2023-08-24T13:52:25;98173.78;;;26.00;45.94
45327;BME280;31062;49.678;24.560;2023-08-24T13:55:10;98293.53;;;26.73;46.12
45327;BME280;31062;49.678;24.560;2023-08-24T13:58:03;98260.41;;;26.46;46.08
45327;BME280;31062;49.678;24.560;2023-08-24T14:00:58;98274.66;;;26.48;46.72
45327;BME280;31062;49.678;24.560;2023-08-24T14:03:47;98217.13;;;26.03;46.13
45327;BME280;31062;49.678;24.560;2023-08-24T14:06:34;98294.72;;;26.58;45.93
45327;BME280;31062;49.678;24.560;2023-08-24T14:09:21;98296.06;;;26.51;45.86
45327;BME280;31062;49.678;24.560;2023-08-24T14:12:11;98183.75;;;25.59;45.72
45327;BME280;31062;49.678;24.560;2023-08-24T14:14:57;98236.91;;;25.97;46.68
45327;BME280;31062;49.678;24.560;2023-08-24T14:17:42;98145.06;;;25.40;46.90
45327;BME280;31062;49.678;24.560;2023-08-24T14:20:29;98283.88;;;26.46;45.50
45327;BME280;31062;49.678;24.560;2023-08-24T14:23:15;98266.78;;;26.42;46.22
45327;BME280;31062;49.678;24.560;2023-08-24T14:26:01;98280.50;;;26.56;46.46
45327;BME280;31062;49.678;24.560;2023-08-24T14:28:50;98257.50;;;26.39;45.67
45327;BME280;31062;49.678;24.560;2023-08-24T14:31:37;98274.81;;;26.56;46.31
45327;BME280;31062;49.678;24.560;2023-08-24T14:34:23;98279.81;;;26.57;46.63
45327;BME280;31062;49.678;24.560;2023-08-24T14:37:10;98281.97;;;26.61;46.25
45327;BME280;31062;49.678;24.560;2023-08-24T14:39:58;98283.34;;;26.58;45.79
45327;BME280;31062;49.678;24.560;2023-08-24T14:42:46;98273.22;;;26.47;45.25